Time;durP1;ratioP1;P1;durP2;ratioP2;P2;SDS_P1;SDS_P2;PMS_P1;PMS_P2;Temp;Humidity;BMP_temperature;BMP_pressure;BME280_temperature;BME280_humidity;BME280_pressure;Samples;Min_cycle;Max_cycle;Signal;HPM_P1;HPM_P2
2022/10/03 00:00:20;;;;;;;1.13;0.50;;;;;;;12.14;100.00;99509.56;6273763;22;20207;-84
2022/10/03 00:03:14;;;;;;;0.70;0.50;;;;;;;12.25;100.00;99511.44;6247566;22;20687;-85
2022/10/03 00:06:03;;;;;;;0.57;0.40;;;;;;;12.25;100.00;99507.94;6274829;22;20208;-85
2022/10/03 00:08:53;;;;;;;0.87;0.50;;;;;;;12.24;100.00;99504.44;6274119;22;20234;-85
2022/10/03 00:11:38;;;;;;;2.83;0.40;;;;;;;12.24;100.00;99508.97;6204900;22;20193;-86
2022/10/03 00:14:21;;;;;;;0.60;0.60;;;;;;;12.02;100.00;99503.38;6247039;22;20232;-84
2022/10/03 00:17:13;;;;;;;1.80;0.67;;;;;;;12.03;100.00;99488.06;6247219;22;20200;-85
2022/10/03 00:19:46;;;;;;;1.03;0.60;;;;;;;12.14;100.00;99503.38;6261401;22;20232;-85
2022/10/03 00:22:33;;;;;;;0.60;0.50;;;;;;;12.15;100.00;99503.13;6246715;22;20686;-85
2022/10/03 00:25:23;;;;;;;0.60;0.60;;;;;;;12.16;100.00;99490.53;6247510;22;20206;-84
2022/10/03 00:28:24;;;;;;;5.30;0.70;;;;;;;12.39;100.00;99498.59;6274199;22;20204;-85
2022/10/03 00:31:08;;;;;;;0.83;0.70;;;;;;;12.26;100.00;99498.84;6250523;22;20212;-84
2022/10/03 00:33:51;;;;;;;2.73;0.63;;;;;;;12.13;100.00;99497.16;6248152;22;20215;-85
2022/10/03 00:36:42;;;;;;;1.23;0.50;;;;;;;12.20;100.00;99505.94;6246989;22;20211;-84
2022/10/03 00:39:13;;;;;;;1.40;0.70;;;;;;;12.29;100.00;99501.03;6275172;22;20242;-85
2022/10/03 00:41:46;;;;;;;1.10;0.80;;;;;;;12.30;100.00;99516.13;6247295;22;20210;-86
2022/10/03 00:44:31;;;;;;;0.80;0.70;;;;;;;12.33;100.00;99508.41;6273605;22;20242;-85
2022/10/03 00:47:10;;;;;;;2.93;0.90;;;;;;;12.33;100.00;99523.69;6274166;22;20294;-84
2022/10/03 00:50:14;;;;;;;1.27;0.60;;;;;;;12.39;100.00;99530.00;6274013;22;20210;-84
2022/10/03 00:52:53;;;;;;;1.53;0.70;;;;;;;12.32;100.00;99524.75;6274595;22;20585;-85
2022/10/03 00:55:52;;;;;;;0.73;0.73;;;;;;;12.31;100.00;99523.13;6247296;22;20204;-85
2022/10/03 00:58:42;;;;;;;1.10;0.63;;;;;;;12.29;100.00;99517.16;6196991;22;20207;-85
2022/10/03 01:01:34;;;;;;;1.00;0.80;;;;;;;12.24;100.00;99508.97;6274293;22;20212;-84
2022/10/03 01:04:19;;;;;;;1.23;0.70;;;;;;;12.18;100.00;99521.47;6273285;22;20649;-85
2022/10/03 01:07:24;;;;;;;1.33;0.70;;;;;;;12.32;100.00;99522.88;6273226;22;20212;-85
2022/10/03 01:10:08;;;;;;;1.67;1.10;;;;;;;12.42;100.00;99524.97;6273175;22;20274;-85
2022/10/03 01:12:58;;;;;;;1.00;0.77;;;;;;;12.52;100.00;99521.72;6273197;22;20203;-84
2022/10/03 01:15:40;;;;;;;0.77;0.70;;;;;;;12.58;100.00;99513.53;6274501;22;20200;-84
2022/10/03 01:18:13;;;;;;;2.00;0.83;;;;;;;12.56;100.00;99522.88;6274313;22;20216;-86
2022/10/03 01:21:01;;;;;;;1.00;0.90;;;;;;;12.64;100.00;99527.91;6274086;22;20210;-84
2022/10/03 01:23:39;;;;;;;2.60;1.10;;;;;;;12.86;100.00;99514.66;6275751;22;20219;-83
2022/10/03 01:26:33;;;;;;;2.20;1.07;;;;;;;12.77;100.00;99516.91;6274495;22;20211;-84
2022/10/03 01:32:25;;;;;;;1.63;1.00;;;;;;;12.82;100.00;99518.88;6251533;22;20243;-85
2022/10/03 01:35:10;;;;;;;1.67;1.23;;;;;;;12.75;100.00;99521.69;6273970;22;20884;-84
2022/10/03 01:37:42;;;;;;;1.23;1.00;;;;;;;12.84;100.00;99509.50;6274880;22;20211;-84
2022/10/03 01:40:42;;;;;;;2.10;0.90;;;;;;;12.71;100.00;99509.78;6273858;22;20702;-85
2022/10/03 01:43:18;;;;;;;1.67;0.90;;;;;;;12.86;100.00;99506.59;6247044;22;20266;-86
2022/10/03 01:46:15;;;;;;;1.40;1.10;;;;;;;12.85;100.00;99511.16;6247791;22;20227;-84
2022/10/03 01:49:25;;;;;;;1.07;0.80;;;;;;;12.74;100.00;99509.28;6251499;22;20200;-84
2022/10/03 01:51:59;;;;;;;2.07;1.00;;;;;;;12.70;100.00;99513.50;6278203;22;20196;-84
2022/10/03 01:54:31;;;;;;;1.77;1.00;;;;;;;12.77;100.00;99517.72;6250417;22;20204;-84
2022/10/03 01:57:20;;;;;;;2.43;1.13;;;;;;;12.59;100.00;99514.34;6225604;22;20208;-85
2022/10/03 02:00:14;;;;;;;2.10;1.33;;;;;;;12.69;100.00;99525.34;6247302;22;20238;-84
2022/10/03 02:02:46;;;;;;;2.23;0.90;;;;;;;12.56;100.00;99523.69;6274270;22;20223;-85
2022/10/03 02:05:34;;;;;;;1.20;1.07;;;;;;;12.43;100.00;99529.31;6273467;22;20253;-84
2022/10/03 02:08:13;;;;;;;1.10;1.00;;;;;;;12.53;100.00;99526.84;6246642;22;20210;-85
2022/10/03 02:10:47;;;;;;;1.90;1.03;;;;;;;12.57;100.00;99525.34;6248845;22;20329;-85
2022/10/03 02:13:19;;;;;;;1.67;1.20;;;;;;;12.43;100.00;99529.31;6275396;22;20262;-84
2022/10/03 02:15:55;;;;;;;2.47;1.10;;;;;;;12.35;100.00;99527.81;6248926;22;20224;-86
2022/10/03 02:18:28;;;;;;;2.43;1.40;;;;;;;12.58;100.00;99528.84;6275464;22;20266;-84
2022/10/03 02:21:19;;;;;;;1.97;1.17;;;;;;;12.51;100.00;99536.19;6209641;22;20204;-84
2022/10/03 02:23:48;;;;;;;2.93;1.20;;;;;;;12.50;100.00;99532.72;6268479;22;20207;-85
2022/10/03 02:26:32;;;;;;;2.43;1.20;;;;;;;12.65;100.00;99542.97;6248136;22;20204;-83
2022/10/03 02:29:17;;;;;;;6.73;1.30;;;;;;;12.43;100.00;99549.97;6276931;22;20210;-85
2022/10/03 02:32:14;;;;;;;4.67;1.20;;;;;;;12.47;100.00;99554.66;6276753;22;20211;-84
2022/10/03 02:35:15;;;;;;;1.53;1.00;;;;;;;12.57;100.00;99554.91;6273946;22;20206;-84
2022/10/03 02:38:13;;;;;;;1.73;1.10;;;;;;;12.59;100.00;99550.13;6277965;22;20227;-84
2022/10/03 02:40:48;;;;;;;2.37;1.10;;;;;;;12.65;100.00;99556.41;6278284;22;20196;-85
2022/10/03 02:43:18;;;;;;;2.20;1.07;;;;;;;12.57;100.00;99562.13;6275767;22;20208;-84
2022/10/03 02:46:19;;;;;;;1.37;1.20;;;;;;;12.51;100.00;99557.69;6248089;22;20656;-85
2022/10/03 02:49:11;;;;;;;1.83;1.40;;;;;;;12.59;100.00;99565.41;6273578;22;20286;-85
2022/10/03 02:52:14;;;;;;;1.70;1.40;;;;;;;12.55;100.00;99565.03;6275038;22;20258;-84
2022/10/03 02:55:18;;;;;;;3.13;1.47;;;;;;;12.53;100.00;99559.09;6274983;22;20306;-85
2022/10/03 02:58:32;;;;;;;2.07;1.40;;;;;;;12.54;100.00;99565.31;6271992;22;20211;-85
2022/10/03 03:01:17;;;;;;;2.47;1.50;;;;;;;12.61;100.00;99569.50;6097912;23;20240;-84
2022/10/03 03:04:03;;;;;;;2.43;1.67;;;;;;;12.57;100.00;99578.25;6276273;22;20677;-85
2022/10/03 03:06:47;;;;;;;2.17;1.50;;;;;;;12.48;100.00;99574.28;6249796;22;20275;-85
2022/10/03 03:09:29;;;;;;;2.63;1.70;;;;;;;12.52;100.00;99570.91;6248626;22;20299;-84
2022/10/03 03:12:06;;;;;;;1.80;1.40;;;;;;;12.38;100.00;99563.28;6277762;22;20240;-84
2022/10/03 03:14:51;;;;;;;1.93;1.43;;;;;;;12.25;100.00;99580.47;6274799;22;20208;-85
2022/10/03 03:17:51;;;;;;;2.30;1.30;;;;;;;12.41;100.00;99577.06;6274952;22;20210;-84
2022/10/03 03:20:30;;;;;;;1.73;1.40;;;;;;;12.27;100.00;99592.59;6235859;22;20208;-85
2022/10/03 03:23:14;;;;;;;1.97;1.33;;;;;;;12.28;100.00;99593.41;6275028;22;20218;-84
2022/10/03 03:26:14;;;;;;;2.13;1.33;;;;;;;12.42;100.00;99596.69;6275235;22;20200;-85
2022/10/03 03:29:03;;;;;;;1.63;1.30;;;;;;;12.37;100.00;99602.78;6228035;22;20196;-85
2022/10/03 03:31:51;;;;;;;1.53;1.43;;;;;;;12.49;100.00;99609.00;6274733;22;20246;-85
2022/10/03 03:34:25;;;;;;;1.40;1.30;;;;;;;12.39;100.00;99607.94;6273993;22;20220;-84
2022/10/03 03:37:07;;;;;;;2.50;1.30;;;;;;;12.35;100.00;99608.41;6247776;22;20211;-86
2022/10/03 03:39:56;;;;;;;1.67;1.20;;;;;;;12.62;100.00;99614.16;6247989;22;20208;-83
2022/10/03 03:42:33;;;;;;;1.60;1.30;;;;;;;12.48;100.00;99611.91;6247618;22;20223;-85
2022/10/03 03:45:03;;;;;;;1.73;1.30;;;;;;;12.42;100.00;99605.59;6247837;22;20205;-85
2022/10/03 03:47:37;;;;;;;6.03;1.60;;;;;;;12.55;100.00;99608.03;6247964;22;20291;-86
2022/10/03 03:50:03;;;;;;;2.83;1.47;;;;;;;12.56;100.00;99609.69;6274365;22;20215;-85
2022/10/03 03:52:38;;;;;;;2.60;1.47;;;;;;;12.74;100.00;99612.25;6274958;22;20203;-84
2022/10/03 03:55:29;;;;;;;3.73;1.50;;;;;;;12.70;100.00;99610.28;6277326;22;20263;-83
2022/10/03 03:58:07;;;;;;;2.80;1.40;;;;;;;12.52;100.00;99630.03;6276381;22;20219;-85
2022/10/03 04:00:47;;;;;;;3.23;1.33;;;;;;;12.72;100.00;99629.69;6272444;22;20561;-83
2022/10/03 04:03:14;;;;;;;1.67;1.20;;;;;;;12.69;100.00;99622.09;6248008;22;20208;-85
2022/10/03 04:06:00;;;;;;;3.27;1.60;;;;;;;12.61;100.00;99625.13;6274931;22;20181;-84
2022/10/03 04:08:27;;;;;;;3.53;1.30;;;;;;;12.80;100.00;99615.91;6275140;22;20550;-84
2022/10/03 04:11:17;;;;;;;1.97;1.40;;;;;;;12.72;100.00;99610.88;6273063;22;20204;-84
2022/10/03 04:14:10;;;;;;;2.47;1.33;;;;;;;12.66;100.00;99614.50;6275205;22;20552;-84
2022/10/03 04:19:47;;;;;;;1.50;1.40;;;;;;;12.55;100.00;99618.78;6274125;22;20208;-83
2022/10/03 04:22:33;;;;;;;1.77;1.00;;;;;;;12.49;100.00;99622.44;6278486;22;20546;-83
2022/10/03 04:25:30;;;;;;;2.80;1.60;;;;;;;12.32;100.00;99622.28;6277400;22;20234;-84
2022/10/03 04:28:03;;;;;;;1.40;1.20;;;;;;;12.36;100.00;99620.75;6274410;22;20291;-86
2022/10/03 04:31:13;;;;;;;3.40;1.50;;;;;;;12.29;100.00;99621.94;6273725;22;20683;-85
2022/10/03 04:33:53;;;;;;;2.03;1.63;;;;;;;12.27;100.00;99626.72;6154084;22;20675;-85
2022/10/03 04:36:29;;;;;;;3.47;1.30;;;;;;;12.23;100.00;99620.97;6247072;22;20249;-85
2022/10/03 04:39:09;;;;;;;3.07;1.83;;;;;;;12.16;100.00;99622.97;6274421;22;20213;-84
2022/10/03 04:42:09;;;;;;;3.03;1.50;;;;;;;12.34;100.00;99627.44;6248425;22;20250;-84
2022/10/03 04:45:04;;;;;;;2.10;1.30;;;;;;;12.18;100.00;99630.75;6253997;22;20225;-84
2022/10/03 04:47:50;;;;;;;3.00;1.67;;;;;;;12.24;100.00;99630.69;6248481;22;20676;-83
2022/10/03 04:50:39;;;;;;;2.43;1.30;;;;;;;12.33;100.00;99629.28;6248620;22;20586;-84
2022/10/03 04:53:17;;;;;;;2.10;1.30;;;;;;;12.25;100.00;99635.00;6253621;22;20227;-83
2022/10/03 04:55:50;;;;;;;1.77;1.23;;;;;;;12.14;100.00;99634.97;6229862;22;20208;-83
2022/10/03 04:58:22;;;;;;;3.10;1.30;;;;;;;12.17;100.00;99645.25;6249584;22;20220;-83
2022/10/03 05:01:02;;;;;;;2.60;1.37;;;;;;;12.21;100.00;99644.56;6277102;22;20659;-83
2022/10/03 05:03:42;;;;;;;2.47;1.30;;;;;;;12.29;100.00;99648.78;6252833;22;20572;-83
2022/10/03 05:06:57;;;;;;;2.10;1.30;;;;;;;12.31;100.00;99655.59;6254539;22;20289;-84
2022/10/03 05:09:31;;;;;;;3.97;1.57;;;;;;;12.26;100.00;99647.41;6140776;22;20218;-84
2022/10/03 05:12:15;;;;;;;2.93;1.40;;;;;;;12.27;100.00;99650.91;6249556;22;20234;-85
2022/10/03 05:14:41;;;;;;;4.00;1.33;;;;;;;12.35;100.00;99647.88;6276239;22;20200;-84
2022/10/03 05:17:18;;;;;;;2.70;1.03;;;;;;;12.33;100.00;99660.72;6274548;22;20245;-84
2022/10/03 05:19:52;;;;;;;2.77;1.20;;;;;;;12.28;100.00;99656.03;6275645;22;20207;-84
2022/10/03 05:22:22;;;;;;;2.57;1.40;;;;;;;12.37;100.00;99664.56;6247671;22;20230;-84
2022/10/03 05:24:59;;;;;;;4.80;1.20;;;;;;;12.34;100.00;99665.84;6229436;22;20231;-84
2022/10/03 05:27:39;;;;;;;2.97;1.30;;;;;;;12.39;100.00;99658.97;6222466;23;20230;-85
2022/10/03 05:30:09;;;;;;;2.73;1.30;;;;;;;12.41;100.00;99671.13;6246891;22;20208;-84
2022/10/03 05:32:57;;;;;;;3.00;1.20;;;;;;;12.53;100.00;99663.09;6218843;23;20201;-84
2022/10/03 05:36:02;;;;;;;1.80;1.17;;;;;;;12.51;100.00;99670.56;6222669;23;20924;-84
2022/10/03 05:38:49;;;;;;;4.13;1.30;;;;;;;12.61;100.00;99674.31;6214464;22;20204;-83
2022/10/03 05:41:15;;;;;;;2.97;1.40;;;;;;;12.70;100.00;99685.53;6224356;23;20212;-84
2022/10/03 05:44:00;;;;;;;3.70;1.33;;;;;;;12.91;100.00;99682.31;6251158;22;20235;-83
2022/10/03 05:46:30;;;;;;;2.03;1.27;;;;;;;12.98;100.00;99687.56;6201009;23;20771;-83
2022/10/03 05:49:35;;;;;;;3.10;1.40;;;;;;;13.18;100.00;99678.13;6248585;22;20204;-84
2022/10/03 05:52:12;;;;;;;2.13;1.20;;;;;;;13.15;100.00;99683.16;6248464;23;20263;-84
2022/10/03 05:54:44;;;;;;;3.17;1.40;;;;;;;13.10;100.00;99683.84;6244928;22;20208;-84
2022/10/03 05:57:20;;;;;;;2.67;1.40;;;;;;;13.30;100.00;99686.16;6245706;22;20661;-84
2022/10/03 06:00:01;;;;;;;2.57;1.20;;;;;;;13.23;100.00;99680.94;6247610;22;20692;-84
2022/10/03 06:03:02;;;;;;;3.20;1.47;;;;;;;13.21;100.00;99696.47;6220736;23;20201;-84
2022/10/03 06:06:00;;;;;;;2.50;1.30;;;;;;;13.14;100.00;99711.94;6252112;22;20258;-84
2022/10/03 06:08:47;;;;;;;3.10;1.50;;;;;;;13.21;100.00;99714.47;6187879;23;20288;-83
2022/10/03 06:11:42;;;;;;;3.17;1.30;;;;;;;13.33;100.00;99719.88;6223202;23;20252;-85
2022/10/03 06:14:27;;;;;;;2.70;1.40;;;;;;;13.31;100.00;99719.28;6218028;22;20307;-85
2022/10/03 06:17:28;;;;;;;4.80;1.70;;;;;;;13.35;100.00;99723.94;6245122;22;20212;-84
2022/10/03 06:20:09;;;;;;;2.90;1.27;;;;;;;13.43;100.00;99730.88;6245220;23;20287;-84
2022/10/03 06:23:09;;;;;;;2.47;1.30;;;;;;;13.52;100.00;99716.81;6218016;23;20258;-84
2022/10/03 06:25:49;;;;;;;3.43;1.23;;;;;;;13.57;100.00;99729.56;6200878;22;20209;-83
2022/10/03 06:28:28;;;;;;;2.33;1.00;;;;;;;13.70;100.00;99741.94;6223434;23;20209;-84
2022/10/03 06:30:55;;;;;;;2.60;1.23;;;;;;;13.90;100.00;99728.91;6249376;23;20208;-84
2022/10/03 06:33:35;;;;;;;3.27;1.50;;;;;;;13.99;100.00;99731.00;6245911;22;20235;-84
2022/10/03 06:36:23;;;;;;;4.23;1.20;;;;;;;14.22;100.00;99737.34;6217111;23;20307;-84
2022/10/03 06:39:08;;;;;;;3.03;1.40;;;;;;;14.52;99.78;99730.66;6243201;22;20582;-85
2022/10/03 06:41:57;;;;;;;4.27;1.40;;;;;;;14.60;98.20;99744.81;6245146;23;20220;-85
2022/10/03 06:45:01;;;;;;;4.57;1.30;;;;;;;14.62;89.42;99738.09;6242468;22;20209;-84
2022/10/03 06:47:56;;;;;;;4.00;1.17;;;;;;;14.32;91.19;99743.75;6232243;22;20280;-84
2022/10/03 06:51:01;;;;;;;1.73;1.00;;;;;;;14.32;89.35;99740.25;6215124;23;20210;-87
2022/10/03 06:54:18;;;;;;;2.77;1.20;;;;;;;14.16;94.01;99730.22;6237616;23;20236;-87
2022/10/03 06:57:30;;;;;;;3.13;1.00;;;;;;;14.13;92.46;99736.91;6199940;22;20204;-86
2022/10/03 07:00:12;;;;;;;3.40;1.07;;;;;;;14.13;87.88;99719.94;6263897;22;20205;-86
2022/10/03 07:03:18;;;;;;;3.03;1.03;;;;;;;14.08;88.16;99724.16;6212435;23;20279;-85
2022/10/03 07:18:23;;;;;;;3.17;1.30;;;;;;;14.90;80.43;99732.66;6293054;22;20594;-83
2022/10/03 07:21:01;;;;;;;2.73;1.13;;;;;;;15.13;78.31;99741.63;6304878;22;20199;-82
2022/10/03 07:23:51;;;;;;;1.90;1.00;;;;;;;15.06;78.08;99735.59;6304562;22;20262;-87
2022/10/03 07:26:27;;;;;;;3.00;1.00;;;;;;;15.03;73.72;99736.06;6276231;22;20429;-84
2022/10/03 07:29:14;;;;;;;2.37;0.60;;;;;;;14.94;69.55;99743.78;6275964;22;20512;-83
2022/10/03 07:31:57;;;;;;;2.47;0.77;;;;;;;14.87;70.06;99738.56;6283049;22;20720;-82
2022/10/03 07:34:51;;;;;;;3.03;0.90;;;;;;;15.08;70.39;99749.66;6275777;22;20585;-83
2022/10/03 07:40:54;;;;;;;2.60;0.90;;;;;;;15.04;72.62;99743.13;6275488;22;20537;-84
2022/10/03 07:43:47;;;;;;;2.13;0.90;;;;;;;15.10;72.49;99747.53;6275513;22;20289;-82
2022/10/03 07:46:44;;;;;;;3.87;1.00;;;;;;;15.00;74.14;99753.59;6242724;22;20203;-83
2022/10/03 07:49:45;;;;;;;3.67;1.10;;;;;;;15.11;74.70;99755.41;6244007;22;20206;-84
2022/10/03 07:52:30;;;;;;;2.77;1.20;;;;;;;15.03;75.35;99754.97;6270259;22;20212;-82
2022/10/03 07:55:18;;;;;;;2.63;1.00;;;;;;;15.05;78.91;99755.56;6275039;22;20208;-87
2022/10/03 07:57:49;;;;;;;3.37;1.13;;;;;;;15.15;75.94;99758.41;6274451;22;20243;-85
2022/10/03 08:00:21;;;;;;;2.57;0.97;;;;;;;15.24;75.77;99751.53;6274340;22;20258;-87
2022/10/03 08:02:54;;;;;;;3.63;0.83;;;;;;;15.21;71.83;99765.53;6274858;22;20205;-85
2022/10/03 08:05:39;;;;;;;2.53;0.93;;;;;;;15.17;71.69;99749.00;6273491;22;20281;-84
2022/10/03 08:08:32;;;;;;;2.70;0.90;;;;;;;15.23;70.10;99769.63;6274156;22;20656;-85
2022/10/03 08:11:27;;;;;;;3.47;1.00;;;;;;;15.27;68.95;99751.03;6275200;22;20213;-86
2022/10/03 08:14:03;;;;;;;2.33;1.10;;;;;;;15.39;72.13;99754.47;6274797;22;20285;-84
2022/10/03 08:17:09;;;;;;;2.50;1.13;;;;;;;15.47;72.18;99758.63;6216935;23;20688;-87
2022/10/03 08:20:00;;;;;;;2.17;0.90;;;;;;;15.37;71.70;99765.50;6216942;23;20599;-84
2022/10/03 08:22:49;;;;;;;2.83;1.03;;;;;;;15.35;71.87;99756.03;6196690;22;20542;-85
2022/10/03 08:25:28;;;;;;;2.00;1.33;;;;;;;15.44;71.70;99751.84;6274010;22;20209;-87
2022/10/03 08:28:16;;;;;;;1.40;1.00;;;;;;;15.48;72.16;99754.88;6248817;22;20277;-85
2022/10/03 08:31:33;;;;;;;3.20;1.20;;;;;;;15.37;71.40;99751.19;6274449;22;21044;-87
2022/10/03 08:34:26;;;;;;;2.33;1.10;;;;;;;15.52;71.79;99764.13;6249532;22;20217;-88
2022/10/03 08:37:34;;;;;;;1.83;1.00;;;;;;;15.58;69.28;99766.66;6247956;22;20211;-90
2022/10/03 08:40:42;;;;;;;3.70;1.07;;;;;;;15.65;71.11;99780.78;6245181;22;20205;-87
2022/10/03 08:43:40;;;;;;;2.30;1.00;;;;;;;15.63;66.80;99774.03;6125436;23;20282;-87
2022/10/03 08:46:37;;;;;;;2.93;1.13;;;;;;;15.74;69.82;99782.00;6128119;23;20670;-87
2022/10/03 08:49:43;;;;;;;3.87;1.17;;;;;;;16.07;67.91;99770.28;6212975;22;20206;-88
2022/10/03 08:52:13;;;;;;;2.83;1.27;;;;;;;15.92;69.51;99770.06;6218835;22;20251;-89
2022/10/03 08:55:05;;;;;;;4.10;1.17;;;;;;;16.19;67.06;99781.75;6276538;22;20213;-88
2022/10/03 08:57:53;;;;;;;2.67;1.33;;;;;;;16.15;68.29;99769.81;6249461;22;20268;-86
2022/10/03 09:00:22;;;;;;;1.60;0.97;;;;;;;16.25;66.96;99764.53;6276138;22;20256;-88
2022/10/03 09:03:10;;;;;;;2.53;1.03;;;;;;;16.56;64.83;99762.16;6224584;22;20575;-89
2022/10/03 09:06:23;;;;;;;3.70;1.30;;;;;;;16.63;63.04;99774.44;6249482;22;20211;-87
2022/10/03 09:08:56;;;;;;;4.00;1.00;;;;;;;16.87;62.21;99777.66;6249388;22;20202;-84
2022/10/03 09:11:51;;;;;;;2.53;1.30;;;;;;;16.89;62.33;99785.50;6224059;22;20291;-86
2022/10/03 09:14:53;;;;;;;1.70;1.00;;;;;;;16.90;60.47;99776.31;6275289;22;20636;-87
2022/10/03 09:17:45;;;;;;;2.63;1.17;;;;;;;17.07;59.74;99771.59;6196152;22;20207;-88
2022/10/03 09:21:06;;;;;;;3.77;1.20;;;;;;;17.64;58.38;99769.03;6223381;22;20207;-89
2022/10/03 09:23:44;;;;;;;1.73;0.90;;;;;;;17.73;58.21;99772.88;6075459;23;20229;-89
2022/10/03 09:26:36;;;;;;;3.47;0.80;;;;;;;17.71;57.34;99763.38;6276028;22;20220;-88
2022/10/03 09:29:26;;;;;;;3.07;0.90;;;;;;;17.55;56.01;99757.84;6275541;22;20231;-85
2022/10/03 09:32:30;;;;;;;2.63;0.97;;;;;;;17.34;56.20;99763.41;6229859;22;20543;-85
2022/10/03 09:35:29;;;;;;;1.47;0.90;;;;;;;17.40;56.22;99760.47;6273389;22;20666;-83
2022/10/03 09:38:20;;;;;;;1.10;0.73;;;;;;;17.74;53.76;99750.13;6274512;22;20275;-86
2022/10/03 09:41:05;;;;;;;3.53;0.93;;;;;;;17.84;53.08;99754.78;6248208;22;20206;-89
2022/10/03 09:43:51;;;;;;;1.07;0.87;;;;;;;17.62;52.19;99759.53;6224034;22;20284;-87
2022/10/03 09:46:32;;;;;;;2.63;0.93;;;;;;;17.46;53.17;99762.13;6273168;22;20295;-88
2022/10/03 09:49:22;;;;;;;4.17;1.23;;;;;;;17.34;51.89;99757.97;6272154;22;20211;-87
2022/10/03 09:51:49;;;;;;;2.30;1.00;;;;;;;17.41;51.51;99751.25;6247509;22;20750;-89
2022/10/03 09:54:25;;;;;;;2.00;0.90;;;;;;;17.39;52.15;99755.31;6247017;22;20600;-88
2022/10/03 09:56:59;;;;;;;1.20;0.60;;;;;;;17.51;53.18;99754.03;6247187;22;20273;-86
2022/10/03 10:00:00;;;;;;;1.93;0.80;;;;;;;17.40;53.14;99746.94;6273992;22;20290;-87
2022/10/03 10:02:52;;;;;;;1.47;0.80;;;;;;;17.62;52.97;99754.13;6249318;22;20203;-88
2022/10/03 10:05:37;;;;;;;1.40;0.80;;;;;;;17.66;51.19;99753.34;6247156;22;20609;-88
2022/10/03 10:08:22;;;;;;;2.47;1.00;;;;;;;17.66;51.96;99744.38;6273091;22;20725;-87
2022/10/03 10:10:56;;;;;;;1.50;0.70;;;;;;;17.17;52.99;99750.81;6274414;22;20208;-88
2022/10/03 10:13:41;;;;;;;3.13;0.80;;;;;;;16.96;53.02;99743.63;6274325;22;20724;-87
2022/10/03 10:16:33;;;;;;;1.40;0.60;;;;;;;16.80;53.53;99757.28;6225670;22;20229;-87
2022/10/03 10:19:33;;;;;;;1.73;0.67;;;;;;;16.55;54.33;99758.66;6258923;22;20208;-86
2022/10/03 10:22:28;;;;;;;1.67;0.80;;;;;;;16.77;53.72;99747.78;6246985;22;20209;-85
2022/10/03 10:25:01;;;;;;;2.13;0.80;;;;;;;16.49;54.20;99748.84;6273013;22;20667;-86
2022/10/03 10:27:47;;;;;;;2.83;0.80;;;;;;;16.28;54.55;99738.91;6246742;22;20207;-85
2022/10/03 10:30:20;;;;;;;1.77;0.77;;;;;;;16.80;53.03;99731.03;6246121;22;20216;-87
2022/10/03 10:33:32;;;;;;;1.30;0.70;;;;;;;17.02;53.04;99736.38;6248736;22;20203;-87
2022/10/03 10:36:20;;;;;;;0.77;0.57;;;;;;;17.06;53.53;99732.88;6224104;22;20212;-87
2022/10/03 10:39:05;;;;;;;3.27;0.80;;;;;;;17.22;53.42;99736.50;6275222;22;20754;-88
2022/10/03 10:42:06;;;;;;;1.60;0.80;;;;;;;17.41;53.86;99739.59;6275553;22;20598;-86
2022/10/03 10:45:11;;;;;;;2.30;0.90;;;;;;;17.81;53.94;99736.34;6246733;22;20203;-87
2022/10/03 10:47:37;;;;;;;1.50;0.83;;;;;;;17.95;51.04;99715.81;6275277;22;20207;-87
2022/10/03 10:50:40;;;;;;;1.63;0.77;;;;;;;18.14;51.64;99740.53;6275179;22;20212;-88
2022/10/03 10:53:45;;;;;;;2.00;0.90;;;;;;;18.05;52.11;99740.25;6223570;22;20661;-86
2022/10/03 10:57:02;;;;;;;3.07;0.97;;;;;;;18.37;51.17;99738.19;6275087;22;20231;-87
2022/10/03 10:59:56;;;;;;;4.77;0.90;;;;;;;18.59;51.17;99734.44;6151865;23;20210;-87
2022/10/03 11:02:57;;;;;;;1.87;0.77;;;;;;;18.66;49.99;99735.81;6126805;23;20227;-87
2022/10/03 11:05:40;;;;;;;1.57;1.07;;;;;;;18.65;50.77;99728.75;6262446;22;20204;-87
2022/10/03 11:08:31;;;;;;;1.97;1.00;;;;;;;18.96;50.54;99736.91;6248216;22;20212;-87
2022/10/03 11:11:16;;;;;;;1.73;0.80;;;;;;;18.99;51.01;99742.59;6248997;22;20208;-87
2022/10/03 11:14:13;;;;;;;2.33;0.83;;;;;;;18.56;50.41;99754.78;6248448;22;20262;-86
2022/10/03 11:17:18;;;;;;;2.13;0.83;;;;;;;17.93;50.47;99735.03;6274698;22;20287;-88
2022/10/03 11:20:20;;;;;;;1.77;0.70;;;;;;;17.99;50.36;99722.31;6122462;23;20218;-87
2022/10/03 11:22:52;;;;;;;1.07;0.70;;;;;;;18.08;49.69;99728.03;6121882;23;20697;-87
2022/10/03 11:25:34;;;;;;;0.93;0.60;;;;;;;18.24;49.42;99717.00;6204256;22;20287;-87
2022/10/03 11:28:37;;;;;;;1.80;0.80;;;;;;;17.90;49.25;99719.31;6247334;22;20204;-87
2022/10/03 11:31:31;;;;;;;2.50;0.80;;;;;;;17.82;50.42;99733.38;6198271;22;20207;-86
2022/10/03 11:34:41;;;;;;;2.37;0.80;;;;;;;17.76;50.96;99718.16;6248551;22;20242;-88
2022/10/03 11:37:28;;;;;;;2.03;0.80;;;;;;;17.51;52.41;99723.41;6243632;22;20208;-86
2022/10/03 11:40:14;;;;;;;2.30;0.70;;;;;;;17.60;51.88;99722.69;6222617;22;20216;-87
2022/10/03 11:43:02;;;;;;;1.20;0.80;;;;;;;17.89;52.21;99714.97;6273914;22;20204;-88
2022/10/03 11:45:33;;;;;;;2.53;1.10;;;;;;;17.50;51.35;99719.06;6259129;22;20201;-87
2022/10/03 11:48:12;;;;;;;2.60;1.00;;;;;;;17.07;53.04;99718.28;6222752;22;20238;-88
2022/10/03 11:50:52;;;;;;;2.93;0.80;;;;;;;16.76;54.10;99740.72;6274701;22;20278;-87
2022/10/03 11:53:21;;;;;;;3.53;1.10;;;;;;;16.50;54.40;99720.72;6248028;22;20214;-86
2022/10/03 11:55:53;;;;;;;1.70;1.00;;;;;;;16.50;55.47;99720.72;6274886;22;20204;-88
2022/10/03 11:58:34;;;;;;;2.57;0.77;;;;;;;16.40;55.85;99725.22;6274231;22;21390;-85
2022/10/03 12:01:16;;;;;;;2.30;0.97;;;;;;;16.55;54.58;99725.38;6248256;22;20235;-90
2022/10/03 12:04:12;;;;;;;1.60;0.77;;;;;;;16.64;54.99;99721.97;6247926;22;20279;-88
2022/10/03 12:10:15;;;;;;;2.50;0.87;;;;;;;17.70;52.77;99735.47;6248288;22;20592;-88
2022/10/03 12:12:50;;;;;;;2.70;1.00;;;;;;;17.79;53.28;99728.47;6222749;22;20570;-87
2022/10/03 12:15:39;;;;;;;2.07;0.90;;;;;;;17.00;55.74;99728.50;6248205;22;20207;-85
2022/10/03 12:18:19;;;;;;;2.33;1.07;;;;;;;16.61;57.61;99752.22;6273903;22;20236;-87
2022/10/03 12:21:07;;;;;;;2.37;1.23;;;;;;;16.10;59.91;99736.50;6247376;22;20203;-85
2022/10/03 12:23:42;;;;;;;2.97;1.03;;;;;;;15.82;62.92;99745.63;6274633;22;20212;-86
2022/10/03 12:26:16;;;;;;;1.77;0.80;;;;;;;16.09;63.52;99751.09;6274363;22;20260;-87
2022/10/03 12:28:45;;;;;;;3.03;0.90;;;;;;;15.96;64.90;99743.38;6247716;22;20205;-86
2022/10/03 12:31:23;;;;;;;2.50;1.00;;;;;;;15.46;67.44;99741.59;6274593;22;20213;-87
2022/10/03 12:34:15;;;;;;;3.07;1.10;;;;;;;15.32;68.97;99765.44;6274679;22;20210;-85
2022/10/03 12:36:52;;;;;;;2.30;1.23;;;;;;;15.31;68.47;99755.69;6275856;22;20202;-85
2022/10/03 12:39:42;;;;;;;2.30;1.20;;;;;;;15.35;69.95;99769.53;6222895;22;20216;-85
2022/10/03 12:42:22;;;;;;;1.33;0.80;;;;;;;15.48;69.16;99785.38;6194092;22;20209;-85
2022/10/03 12:45:01;;;;;;;2.03;0.77;;;;;;;15.33;68.18;99777.88;6249945;22;20586;-83
2022/10/03 12:47:39;;;;;;;1.43;0.60;;;;;;;15.28;68.51;99793.16;6259103;22;20234;-82
2022/10/03 12:50:42;;;;;;;2.67;0.70;;;;;;;15.25;70.55;99804.47;6244337;22;20205;-84
2022/10/03 12:53:14;;;;;;;1.77;0.60;;;;;;;15.17;70.38;99805.66;6229338;22;20547;-84
2022/10/03 12:56:00;;;;;;;2.43;0.57;;;;;;;15.05;71.01;99802.25;6276466;22;20201;-84
2022/10/03 12:58:37;;;;;;;2.57;0.80;;;;;;;15.12;70.75;99788.56;6275516;22;20284;-84
2022/10/03 13:01:22;;;;;;;0.80;0.60;;;;;;;15.28;70.16;99793.16;6223824;22;20253;-86
2022/10/03 13:03:59;;;;;;;1.23;0.50;;;;;;;15.47;72.99;99801.81;6275837;22;20213;-86
2022/10/03 13:06:57;;;;;;;2.23;0.70;;;;;;;15.45;73.47;99791.25;6275524;22;20203;-86
2022/10/03 13:09:36;;;;;;;2.63;0.60;;;;;;;15.60;73.50;99798.81;6276143;22;20235;-84
2022/10/03 13:12:15;;;;;;;2.77;0.80;;;;;;;15.73;72.17;99801.16;6275603;22;20209;-85
2022/10/03 13:15:03;;;;;;;2.03;0.70;;;;;;;15.85;71.91;99791.06;6276031;22;20657;-86
2022/10/03 13:17:46;;;;;;;3.73;0.50;;;;;;;15.64;71.11;99781.03;6275550;22;20289;-84
2022/10/03 13:20:24;;;;;;;0.53;0.40;;;;;;;15.88;69.12;99790.56;6248250;22;20308;-87
2022/10/03 13:23:20;;;;;;;1.37;0.63;;;;;;;15.89;67.07;99797.59;6275588;22;20288;-84